createdAt,value
2023-04-14T00:01:24.258Z,3.80
2023-04-14T00:03:53.010Z,3.60
2023-04-14T00:06:21.074Z,3.50
2023-04-14T00:08:49.006Z,3.60
2023-04-14T00:11:16.877Z,3.70
2023-04-14T00:13:46.113Z,3.60
2023-04-14T00:16:14.105Z,3.70
2023-04-14T00:18:42.349Z,3.70
2023-04-14T00:21:10.280Z,3.70
2023-04-14T00:23:38.152Z,3.50
2023-04-14T00:26:06.462Z,3.50
2023-04-14T00:28:34.384Z,3.60
2023-04-14T00:31:03.683Z,3.60
2023-04-14T00:33:31.548Z,3.70
2023-04-14T00:35:59.525Z,3.50
2023-04-14T00:38:27.520Z,3.30
2023-04-14T00:40:55.389Z,3.20
2023-04-14T00:43:23.303Z,3.40
2023-04-14T00:45:52.519Z,3.30
2023-04-14T00:48:21.976Z,3.20
2023-04-14T00:50:49.975Z,3.40
2023-04-14T00:53:17.891Z,3.20
2023-04-14T00:55:45.931Z,3.20
2023-04-14T00:58:15.770Z,3.20
2023-04-14T01:00:43.994Z,3.20
2023-04-14T01:03:12.359Z,3.20
2023-04-14T01:05:41.801Z,3.30
2023-04-14T01:08:09.811Z,3.30
2023-04-14T01:10:42.383Z,3.10
2023-04-14T01:13:33.506Z,3.20
2023-04-14T01:16:05.259Z,3.40
2023-04-14T01:18:42.123Z,3.30
2023-04-14T01:21:17.152Z,3.20
2023-04-14T01:24:04.043Z,3.20
2023-04-14T01:26:32.974Z,3.30
2023-04-14T01:29:44.958Z,3.30
2023-04-14T01:32:19.463Z,3.40
2023-04-14T01:34:51.978Z,3.40
2023-04-14T01:37:30.099Z,3.20
2023-04-14T01:40:02.950Z,3.30
2023-04-14T01:42:35.023Z,3.50
2023-04-14T01:45:07.647Z,3.40
2023-04-14T01:47:38.226Z,3.60
2023-04-14T01:50:07.987Z,3.90
2023-04-14T01:52:37.935Z,3.70
2023-04-14T01:55:09.614Z,3.60
2023-04-14T01:57:39.119Z,3.70
2023-04-14T02:00:10.264Z,3.90
2023-04-14T02:02:41.475Z,3.90
2023-04-14T02:05:10.692Z,3.80
2023-04-14T02:07:39.987Z,4.00
2023-04-14T02:10:11.344Z,4.10
2023-04-14T02:12:42.223Z,4.10
2023-04-14T02:15:15.516Z,4.10
2023-04-14T02:17:47.653Z,4.20
2023-04-14T02:20:16.904Z,4.30
2023-04-14T02:22:44.803Z,4.20
2023-04-14T02:25:12.803Z,4.20
2023-04-14T02:27:46.218Z,4.20
2023-04-14T02:30:19.331Z,4.40
2023-04-14T02:33:06.169Z,4.40
2023-04-14T02:35:40.351Z,4.50
2023-04-14T02:38:17.003Z,4.60
2023-04-14T02:40:46.021Z,4.50
2023-04-14T02:43:18.743Z,4.40
2023-04-14T02:45:50.770Z,4.50
2023-04-14T02:48:24.266Z,4.40
2023-04-14T02:50:55.572Z,4.50
2023-04-14T02:53:26.397Z,4.20
2023-04-14T02:55:54.375Z,4.40
2023-04-14T02:58:22.405Z,4.40
2023-04-14T03:00:52.114Z,4.40
2023-04-14T03:03:21.712Z,4.40
2023-04-14T03:05:49.727Z,4.40
2023-04-14T03:08:17.963Z,4.40
2023-04-14T03:10:47.245Z,4.50
2023-04-14T03:13:16.739Z,4.30
2023-04-14T03:15:46.726Z,4.40
2023-04-14T03:18:16.431Z,4.30
2023-04-14T03:20:47.177Z,4.50
2023-04-14T03:23:18.957Z,4.40
2023-04-14T03:25:48.839Z,4.40
2023-04-14T03:28:20.481Z,4.20
2023-04-14T03:30:52.456Z,4.40
2023-04-14T03:33:24.388Z,4.50
2023-04-14T03:35:54.940Z,4.40
2023-04-14T03:38:26.240Z,4.60
2023-04-14T03:40:55.199Z,4.50
2023-04-14T03:43:24.953Z,4.30
2023-04-14T03:45:52.853Z,4.50
2023-04-14T03:48:22.328Z,4.30
2023-04-14T03:50:54.711Z,4.30
2023-04-14T03:53:22.978Z,4.30
2023-04-14T03:55:53.907Z,4.30
2023-04-14T03:58:23.109Z,4.10
2023-04-14T04:00:53.107Z,4.30
2023-04-14T04:03:22.852Z,4.10
2023-04-14T04:05:51.207Z,4.10
2023-04-14T04:08:21.260Z,4.20
2023-04-14T04:10:50.629Z,4.10
2023-04-14T04:13:21.667Z,4.30
2023-04-14T04:15:52.060Z,4.00
2023-04-14T04:18:22.625Z,4.00
2023-04-14T04:20:51.368Z,4.00
2023-04-14T04:23:23.646Z,3.90
2023-04-14T04:25:52.903Z,3.80
2023-04-14T04:28:21.163Z,3.70
2023-04-14T04:30:51.477Z,3.80
2023-04-14T04:33:20.976Z,3.70
2023-04-14T04:35:49.382Z,3.60
2023-04-14T04:38:17.300Z,3.70
2023-04-14T04:40:46.703Z,3.50
2023-04-14T04:43:14.575Z,3.50
2023-04-14T04:46:09.587Z,3.70
2023-04-14T04:48:37.510Z,3.40
2023-04-14T04:51:05.589Z,3.60
2023-04-14T04:53:33.564Z,3.50
2023-04-14T04:56:02.894Z,3.70
2023-04-14T04:58:30.814Z,3.90
2023-04-14T05:00:58.785Z,3.90
2023-04-14T05:03:27.181Z,3.90
2023-04-14T05:05:55.173Z,4.10
2023-04-14T05:08:23.333Z,4.20
2023-04-14T05:10:51.337Z,4.30
2023-04-14T05:13:22.482Z,4.30
2023-04-14T05:15:50.379Z,4.30
2023-04-14T05:18:18.317Z,4.70
2023-04-14T05:20:46.295Z,4.40
2023-04-14T05:23:14.285Z,4.50
2023-04-14T05:25:42.198Z,4.70
2023-04-14T05:28:10.051Z,4.70
2023-04-14T05:30:39.413Z,4.70
2023-04-14T05:33:07.373Z,4.80
2023-04-14T05:35:35.279Z,5.20
2023-04-14T05:38:03.169Z,5.10
2023-04-14T05:40:33.339Z,5.30
2023-04-14T05:43:01.496Z,5.40
2023-04-14T05:45:29.471Z,5.50
2023-04-14T05:47:58.975Z,5.60
2023-04-14T05:50:27.074Z,5.70
2023-04-14T05:52:55.442Z,5.80
2023-04-14T05:55:23.624Z,5.80
2023-04-14T05:57:52.450Z,5.90
2023-04-14T06:00:23.232Z,5.80
2023-04-14T06:02:51.558Z,5.90
2023-04-14T06:05:21.273Z,5.60
2023-04-14T06:07:49.210Z,5.80
2023-04-14T06:10:17.104Z,5.60
2023-04-14T06:12:45.698Z,5.80
2023-04-14T06:15:13.894Z,5.90
2023-04-14T06:17:42.156Z,5.90
2023-04-14T06:20:11.543Z,5.80
2023-04-14T06:22:40.966Z,5.90
2023-04-14T06:25:10.844Z,5.70
2023-04-14T06:27:38.760Z,5.70
2023-04-14T06:30:08.101Z,5.90
2023-04-14T06:32:36.050Z,6.00
2023-04-14T06:35:05.050Z,6.00
2023-04-14T06:37:33.112Z,6.10
2023-04-14T06:40:02.429Z,6.30
2023-04-14T06:42:30.378Z,5.90
2023-04-14T06:44:58.190Z,6.20
2023-04-14T06:47:26.125Z,6.00
2023-04-14T06:49:54.033Z,6.00
2023-04-14T06:52:21.936Z,6.10
2023-04-14T06:54:49.985Z,6.20
2023-04-14T06:57:19.262Z,6.00
2023-04-14T06:59:47.764Z,6.20
2023-04-14T07:02:15.732Z,6.10
2023-04-14T07:04:43.631Z,6.30
2023-04-14T07:07:11.789Z,6.20
2023-04-14T07:09:39.824Z,6.40
2023-04-14T07:12:07.765Z,6.50
2023-04-14T07:14:37.871Z,6.30
2023-04-14T07:17:05.835Z,6.60
2023-04-14T07:19:33.776Z,6.90
2023-04-14T07:22:01.875Z,6.80
2023-04-14T07:24:29.743Z,6.90
2023-04-14T07:26:57.607Z,6.90
2023-04-14T07:29:27.193Z,7.10
2023-04-14T07:31:56.484Z,7.00
2023-04-14T07:34:24.340Z,7.20
2023-04-14T07:36:52.262Z,7.00
2023-04-14T07:39:23.665Z,7.20
2023-04-14T07:41:51.777Z,7.20
2023-04-14T07:44:19.784Z,7.30
2023-04-14T07:46:47.711Z,7.40
2023-04-14T07:49:17.166Z,7.30
2023-04-14T07:51:45.115Z,7.40
2023-04-14T07:54:13.008Z,7.50
2023-04-14T07:56:40.960Z,7.40
2023-04-14T07:59:08.861Z,7.40
2023-04-14T08:01:37.627Z,7.60
2023-04-14T08:04:05.992Z,7.70
2023-04-14T08:06:35.495Z,8.00
2023-04-14T08:09:03.659Z,8.20
2023-04-14T08:11:31.650Z,8.30
2023-04-14T08:13:59.582Z,8.30
2023-04-14T08:16:27.773Z,8.30
2023-04-14T08:18:57.316Z,8.70
2023-04-14T08:21:26.959Z,8.80
2023-04-14T08:23:57.173Z,8.70
2023-04-14T08:26:27.240Z,8.90
2023-04-14T08:28:55.708Z,9.10
2023-04-14T08:31:24.933Z,9.30
2023-04-14T08:33:53.221Z,9.30
2023-04-14T08:36:21.577Z,9.40
2023-04-14T08:38:49.614Z,9.50
2023-04-14T08:41:21.000Z,9.60
2023-04-14T08:43:48.899Z,9.90
2023-04-14T08:46:17.436Z,10.10
2023-04-14T08:48:47.952Z,10.20
2023-04-14T08:51:23.232Z,10.40
2023-04-14T08:53:54.123Z,10.40
2023-04-14T08:56:25.457Z,10.50
2023-04-14T08:58:53.494Z,10.60
2023-04-14T09:01:21.695Z,10.90
2023-04-14T09:03:50.618Z,10.80
2023-04-14T09:06:19.475Z,11.00
2023-04-14T09:08:47.655Z,10.90
2023-04-14T09:11:17.368Z,11.00
2023-04-14T09:13:47.481Z,11.20
2023-04-14T09:16:15.598Z,11.30
2023-04-14T09:18:43.807Z,11.30
2023-04-14T09:21:50.435Z,11.50
2023-04-14T09:24:04.550Z,11.50
2023-04-14T09:26:32.451Z,11.60
2023-04-14T09:29:01.991Z,11.60
2023-04-14T09:31:30.822Z,11.70
2023-04-14T09:33:58.795Z,11.80
2023-04-14T09:36:29.007Z,11.80
2023-04-14T09:38:57.226Z,12.10
2023-04-14T09:41:26.028Z,12.20
2023-04-14T09:43:54.118Z,12.30
2023-04-14T09:46:23.419Z,12.40
2023-04-14T09:48:53.051Z,12.60
2023-04-14T09:51:23.960Z,12.70
2023-04-14T09:53:54.049Z,12.70
2023-04-14T09:56:26.739Z,12.90
2023-04-14T09:58:59.731Z,12.80
2023-04-14T10:01:33.731Z,12.90
2023-04-14T10:04:03.253Z,13.00
2023-04-14T10:06:32.172Z,13.00
2023-04-14T10:09:00.487Z,13.00
2023-04-14T10:11:30.445Z,13.00
2023-04-14T10:14:00.069Z,13.00
2023-04-14T10:16:28.460Z,13.00
2023-04-14T10:18:58.690Z,12.90
2023-04-14T10:21:27.681Z,13.00
2023-04-14T10:23:57.487Z,13.20
2023-04-14T10:26:25.709Z,13.40
2023-04-14T10:28:57.112Z,13.40
2023-04-14T10:31:29.172Z,13.40
2023-04-14T10:33:58.877Z,13.60
2023-04-14T10:36:28.005Z,13.50
2023-04-14T10:39:02.277Z,13.50
2023-04-14T10:41:45.369Z,13.80
2023-04-14T10:44:24.135Z,13.80
2023-04-14T10:46:54.022Z,13.90
2023-04-14T10:49:27.304Z,14.00
2023-04-14T10:51:55.165Z,14.20
2023-04-14T10:54:23.031Z,14.40
2023-04-14T10:57:11.052Z,14.30
2023-04-14T10:59:42.314Z,14.40
2023-04-14T11:02:28.146Z,14.70
2023-04-14T11:05:06.475Z,14.90
2023-04-14T11:07:40.090Z,15.00
2023-04-14T11:10:36.699Z,15.20
2023-04-14T11:13:06.881Z,15.10
2023-04-14T11:15:49.001Z,15.10
2023-04-14T11:18:18.773Z,15.00
2023-04-14T11:20:48.073Z,15.00
2023-04-14T11:23:16.958Z,15.00
2023-04-14T11:25:45.657Z,15.20
2023-04-14T11:28:13.747Z,15.40
2023-04-14T11:30:43.221Z,15.50
2023-04-14T11:33:11.221Z,15.50
2023-04-14T11:35:39.194Z,15.40
2023-04-14T11:38:11.840Z,15.10
2023-04-14T11:40:39.794Z,15.00
2023-04-14T11:43:07.992Z,14.90
2023-04-14T11:45:36.321Z,14.80
2023-04-14T11:48:06.944Z,15.10
2023-04-14T11:50:38.575Z,15.40
2023-04-14T11:53:10.245Z,15.50
2023-04-14T11:55:38.443Z,15.40
2023-04-14T11:58:06.610Z,15.20
2023-04-14T12:00:34.811Z,15.20
2023-04-14T12:03:04.031Z,15.40
2023-04-14T12:05:33.816Z,15.40
2023-04-14T12:08:03.667Z,15.50
2023-04-14T12:10:34.468Z,15.60
2023-04-14T12:13:03.317Z,15.80
2023-04-14T12:15:32.625Z,15.90
2023-04-14T12:18:01.052Z,16.10
2023-04-14T12:20:30.365Z,16.40
2023-04-14T12:23:02.944Z,16.40
2023-04-14T12:25:34.113Z,16.40
2023-04-14T12:28:06.019Z,16.40
2023-04-14T12:30:34.143Z,16.40
2023-04-14T12:33:09.684Z,16.60
2023-04-14T12:35:37.525Z,16.70
2023-04-14T12:38:10.604Z,16.90
2023-04-14T12:40:41.097Z,17.00
2023-04-14T12:43:08.982Z,17.10
2023-04-14T12:45:43.976Z,17.30
2023-04-14T12:48:12.949Z,17.80
2023-04-14T12:50:41.362Z,18.00
2023-04-14T12:53:25.341Z,18.20
2023-04-14T12:56:10.457Z,18.20
2023-04-14T12:58:39.761Z,18.30
2023-04-14T13:01:08.274Z,18.50
2023-04-14T13:03:44.846Z,18.50
2023-04-14T13:06:16.191Z,18.70
2023-04-14T13:08:45.454Z,18.70
2023-04-14T13:11:15.272Z,18.20
2023-04-14T13:13:44.333Z,17.90
2023-04-14T13:16:16.206Z,17.10
2023-04-14T13:18:45.297Z,16.40
2023-04-14T13:21:13.395Z,16.30
2023-04-14T13:23:41.702Z,16.30
2023-04-14T13:26:09.832Z,16.60
2023-04-14T13:28:39.329Z,17.00
2023-04-14T13:31:07.404Z,17.10
2023-04-14T13:33:35.535Z,17.10
2023-04-14T13:36:03.888Z,17.00
2023-04-14T13:38:31.954Z,17.10
2023-04-14T13:41:00.280Z,17.00
2023-04-14T13:43:28.198Z,17.10
2023-04-14T13:45:59.094Z,17.10
2023-04-14T13:48:27.112Z,17.00
2023-04-14T13:50:55.752Z,16.90
2023-04-14T13:53:23.870Z,17.00
2023-04-14T13:55:52.002Z,17.00
2023-04-14T13:58:19.929Z,17.00
2023-04-14T14:00:47.831Z,17.10
2023-04-14T14:03:17.456Z,17.20
2023-04-14T14:05:45.454Z,17.20
2023-04-14T14:08:15.803Z,17.10
2023-04-14T14:10:43.943Z,17.00
2023-04-14T14:13:11.859Z,17.00
2023-04-14T14:15:39.798Z,16.80
2023-04-14T14:18:07.718Z,16.80
2023-04-14T14:20:36.985Z,16.80
2023-04-14T14:23:05.072Z,17.00
2023-04-14T14:25:32.967Z,17.10
2023-04-14T14:28:00.802Z,17.20
2023-04-14T14:30:28.761Z,17.00
2023-04-14T14:32:56.678Z,16.90
2023-04-14T14:35:24.560Z,16.80
2023-04-14T14:37:53.876Z,16.70
2023-04-14T14:40:21.969Z,16.90
2023-04-14T14:42:49.820Z,16.90
2023-04-14T14:45:19.001Z,17.20
2023-04-14T14:47:58.458Z,17.30
2023-04-14T14:50:26.297Z,17.40
2023-04-14T14:52:56.837Z,17.50
2023-04-14T14:55:24.842Z,17.30
2023-04-14T14:57:52.738Z,17.30
2023-04-14T15:00:21.147Z,17.40
2023-04-14T15:02:49.119Z,17.10
2023-04-14T15:05:17.309Z,17.00
2023-04-14T15:07:45.215Z,16.80
2023-04-14T15:10:15.816Z,16.80
2023-04-14T15:12:43.704Z,16.80
2023-04-14T15:15:12.850Z,16.70
2023-04-14T15:17:40.824Z,16.80
2023-04-14T15:20:09.758Z,16.90
2023-04-14T15:22:37.660Z,16.90
2023-04-14T15:25:06.900Z,16.80
2023-04-14T15:27:36.365Z,16.70
2023-04-14T15:30:04.464Z,16.80
2023-04-14T15:32:32.378Z,16.70
2023-04-14T15:35:00.277Z,16.70
2023-04-14T15:37:28.183Z,16.70
2023-04-14T15:39:56.721Z,16.60
2023-04-14T15:42:24.659Z,16.60
2023-04-14T15:44:54.003Z,16.50
2023-04-14T15:47:21.954Z,16.50
2023-04-14T15:49:52.439Z,16.50
2023-04-14T15:52:35.310Z,16.50
2023-04-14T15:55:03.207Z,16.50
2023-04-14T15:57:31.076Z,16.30
2023-04-14T16:00:01.949Z,16.30
2023-04-14T16:02:29.939Z,16.60
2023-04-14T16:04:58.202Z,16.80
2023-04-14T16:07:26.119Z,16.90
2023-04-14T16:09:54.015Z,17.40
2023-04-14T16:12:22.128Z,17.60
2023-04-14T16:14:51.993Z,17.90
2023-04-14T16:17:21.859Z,18.00
2023-04-14T16:19:49.729Z,18.40
2023-04-14T16:22:17.578Z,18.60
2023-04-14T16:24:45.415Z,18.60
2023-04-14T16:27:13.232Z,18.60
2023-04-14T16:29:41.807Z,18.30
2023-04-14T16:32:09.678Z,18.30
2023-04-14T16:34:39.043Z,18.20
2023-04-14T16:37:06.869Z,17.70
2023-04-14T16:39:34.801Z,17.10
2023-04-14T16:42:03.112Z,16.70
2023-04-14T16:44:30.996Z,16.50
2023-04-14T16:46:58.841Z,16.50
2023-04-14T16:49:27.088Z,16.40
2023-04-14T16:51:57.450Z,16.60
2023-04-14T16:54:25.349Z,16.90
2023-04-14T16:56:53.235Z,17.00
2023-04-14T16:59:21.086Z,16.80
2023-04-14T17:01:49.064Z,16.40
2023-04-14T17:04:17.169Z,16.00
2023-04-14T17:06:46.436Z,15.80
2023-04-14T17:09:17.387Z,15.90
2023-04-14T17:11:46.043Z,16.10
2023-04-14T17:14:13.884Z,15.80
2023-04-14T17:16:42.173Z,15.60
2023-04-14T17:19:10.581Z,15.40
2023-04-14T17:21:38.990Z,15.10
2023-04-14T17:24:07.278Z,15.00
2023-04-14T17:26:36.567Z,14.80
2023-04-14T17:29:04.436Z,14.80
2023-04-14T17:31:32.513Z,14.70
2023-04-14T17:34:01.064Z,14.60
2023-04-14T17:36:29.296Z,14.40
2023-04-14T17:38:57.531Z,14.30
2023-04-14T17:41:25.679Z,14.10
2023-04-14T17:43:55.003Z,14.20
2023-04-14T17:46:33.227Z,14.00
2023-04-14T17:49:02.273Z,14.00
2023-04-14T17:51:31.148Z,13.90
2023-04-14T17:53:59.633Z,13.80
2023-04-14T17:56:27.692Z,13.60
2023-04-14T17:58:57.516Z,13.70
2023-04-14T18:01:26.105Z,13.60
2023-04-14T18:03:54.083Z,13.40
2023-04-14T18:06:22.793Z,13.40
2023-04-14T18:08:51.435Z,13.30
2023-04-14T18:11:20.441Z,13.10
2023-04-14T18:13:48.286Z,13.10
2023-04-14T18:16:19.417Z,12.90
2023-04-14T18:18:47.612Z,12.90
2023-04-14T18:21:15.560Z,12.70
2023-04-14T18:23:43.822Z,12.70
2023-04-14T18:28:42.453Z,12.40
2023-04-14T18:31:12.456Z,12.00
2023-04-14T18:33:43.235Z,12.00
2023-04-14T18:36:11.451Z,11.80
2023-04-14T18:38:39.367Z,11.70
2023-04-14T18:41:07.305Z,11.40
2023-04-14T18:43:35.364Z,11.30
2023-04-14T18:46:03.661Z,11.20
2023-04-14T18:48:31.726Z,11.10
2023-04-14T18:51:04.221Z,10.90
2023-04-14T18:53:32.500Z,10.80
2023-04-14T18:56:00.513Z,10.70
2023-04-14T18:58:29.325Z,10.50
2023-04-14T19:00:57.511Z,10.40
2023-04-14T19:03:26.956Z,10.30
2023-04-14T19:05:55.699Z,10.20
2023-04-14T19:08:25.128Z,10.20
2023-04-14T19:10:53.042Z,10.10
2023-04-14T19:13:20.915Z,9.90
2023-04-14T19:15:48.925Z,9.80
2023-04-14T19:18:17.190Z,9.70
2023-04-14T19:20:47.192Z,9.70
2023-04-14T19:23:15.069Z,9.60
2023-04-14T19:25:44.384Z,9.50
2023-04-14T19:28:16.572Z,9.60
2023-04-14T19:30:45.598Z,9.50
2023-04-14T19:33:13.886Z,9.30
2023-04-14T19:35:44.077Z,9.30
2023-04-14T19:38:12.203Z,9.30
2023-04-14T19:40:40.163Z,9.30
2023-04-14T19:43:09.368Z,9.10
2023-04-14T19:45:37.239Z,9.20
2023-04-14T19:48:19.970Z,9.10
2023-04-14T19:50:51.947Z,9.10
2023-04-14T19:53:20.497Z,9.20
2023-04-14T19:55:51.572Z,9.20
2023-04-14T19:58:21.580Z,9.20
2023-04-14T20:00:51.414Z,9.30
2023-04-14T20:03:20.289Z,9.30
2023-04-14T20:05:51.742Z,9.30
2023-04-14T20:08:20.569Z,9.30
2023-04-14T20:10:51.559Z,9.30
2023-04-14T20:13:22.713Z,9.20
2023-04-14T20:15:53.891Z,9.30
2023-04-14T20:18:22.427Z,9.30
2023-04-14T20:20:50.953Z,9.40
2023-04-14T20:23:18.940Z,9.30
2023-04-14T20:25:48.429Z,9.40
2023-04-14T20:28:16.631Z,9.40
2023-04-14T20:30:47.985Z,9.30
2023-04-14T20:33:18.298Z,9.20
2023-04-14T20:35:46.389Z,9.30
2023-04-14T20:38:15.408Z,9.20
2023-04-14T20:40:43.498Z,9.30
2023-04-14T20:43:11.417Z,9.20
2023-04-14T20:45:39.502Z,9.00
2023-04-14T20:48:09.119Z,9.20
2023-04-14T20:50:37.230Z,9.00
2023-04-14T20:53:05.121Z,9.00
2023-04-14T20:55:33.461Z,9.00
2023-04-14T20:58:01.415Z,8.90
2023-04-14T21:00:31.001Z,8.90
2023-04-14T21:03:00.906Z,8.80
2023-04-14T21:05:30.319Z,8.80
2023-04-14T21:07:58.157Z,8.80
2023-04-14T21:10:26.052Z,8.70
2023-04-14T21:15:16.065Z,8.70
2023-04-14T21:15:55.683Z,8.70
2023-04-14T21:18:24.352Z,8.50
2023-04-14T21:20:53.624Z,8.40
2023-04-14T21:23:21.937Z,8.40
2023-04-14T21:25:49.917Z,8.30
2023-04-14T21:28:18.050Z,8.30
2023-04-14T21:30:45.937Z,8.30
2023-04-14T21:33:13.851Z,8.10
2023-04-14T21:35:42.233Z,8.00
2023-04-14T21:38:11.566Z,7.90
2023-04-14T21:40:39.497Z,7.90
2023-04-14T21:43:07.423Z,8.00
2023-04-14T21:45:35.335Z,7.90
2023-04-14T21:48:04.013Z,7.90
2023-04-14T21:50:33.243Z,7.80
2023-04-14T21:53:01.632Z,7.70
2023-04-14T21:55:31.546Z,7.70
2023-04-14T21:58:00.305Z,7.60
2023-04-14T22:00:28.382Z,7.50
2023-04-14T22:02:56.421Z,7.50
2023-04-14T22:05:24.641Z,7.30
2023-04-14T22:07:53.651Z,7.20
2023-04-14T22:10:21.992Z,7.40
2023-04-14T22:12:51.983Z,7.30
2023-04-14T22:15:20.109Z,7.20
2023-04-14T22:17:48.029Z,7.10
2023-04-14T22:20:16.500Z,7.10
2023-04-14T22:22:44.467Z,7.00
2023-04-14T22:25:12.592Z,6.90
2023-04-14T22:27:40.470Z,7.00
2023-04-14T22:30:11.607Z,6.80
2023-04-14T22:32:39.642Z,6.90
2023-04-14T22:35:08.294Z,6.80
2023-04-14T22:37:36.174Z,6.70
2023-04-14T22:40:04.390Z,6.90
2023-04-14T22:42:32.539Z,6.80
2023-04-14T22:45:01.235Z,6.60
2023-04-14T22:47:30.723Z,6.80
2023-04-14T22:49:58.584Z,6.50
2023-04-14T22:52:27.814Z,6.50
2023-04-14T22:54:55.794Z,6.50
2023-04-14T22:57:23.681Z,6.40
2023-04-14T22:59:51.830Z,6.30
2023-04-14T23:02:19.837Z,6.50
2023-04-14T23:04:49.274Z,6.30
2023-04-14T23:07:17.232Z,6.40
2023-04-14T23:09:45.168Z,6.20
2023-04-14T23:12:13.061Z,6.40
2023-04-14T23:14:40.921Z,6.10
2023-04-14T23:17:08.900Z,6.40
2023-04-14T23:19:36.866Z,6.30
2023-04-14T23:22:06.191Z,6.10
2023-04-14T23:24:34.409Z,6.20
2023-04-14T23:27:02.983Z,6.20
2023-04-14T23:29:30.917Z,6.10
2023-04-14T23:31:58.777Z,6.20
2023-04-14T23:34:26.670Z,6.20
2023-04-14T23:36:54.562Z,6.10
2023-04-14T23:39:23.807Z,6.00
2023-04-14T23:41:51.688Z,6.10
2023-04-14T23:44:19.620Z,6.10
2023-04-14T23:46:47.748Z,5.90
2023-04-14T23:49:24.284Z,5.90
2023-04-14T23:52:04.079Z,5.80
2023-04-14T23:54:33.539Z,6.00
2023-04-14T23:57:01.704Z,5.70
2023-04-14T23:59:29.629Z,6.00
